Time;durP1;ratioP1;P1;durP2;ratioP2;P2;SDS_P1;SDS_P2;PMS_P1;PMS_P2;Temp;Humidity;BMP_temperature;BMP_pressure;BME280_temperature;BME280_humidity;BME280_pressure;Samples;Min_cycle;Max_cycle;Signal;HPM_P1;HPM_P2
2023/03/23 00:00:08;;;;;;;30.88;18.00;;;11.10;99.90;;;;;;5053739;28;20043;-70
2023/03/23 00:02:38;;;;;;;21.50;15.98;;;11.00;99.90;;;;;;5053721;28;20095;-70
2023/03/23 00:05:06;;;;;;;19.75;15.35;;;11.10;99.90;;;;;;5053340;28;20048;-70
2023/03/23 00:07:32;;;;;;;20.27;15.90;;;11.10;99.90;;;;;;5035393;28;20148;-70
2023/03/23 00:09:58;;;;;;;28.30;16.25;;;11.10;99.90;;;;;;5053633;28;20045;-70
2023/03/23 00:12:33;;;;;;;21.05;14.93;;;11.10;99.90;;;;;;5052951;28;20068;-70
2023/03/23 00:15:07;;;;;;;22.27;15.40;;;11.10;99.90;;;;;;5052991;28;20073;-71
2023/03/23 00:17:34;;;;;;;28.17;16.60;;;11.10;99.90;;;;;;5053065;28;20559;-70
2023/03/23 00:20:00;;;;;;;20.48;16.02;;;11.10;99.90;;;;;;5053190;28;20044;-70
2023/03/23 00:22:27;;;;;;;19.02;14.27;;;11.20;99.90;;;;;;5053377;28;20033;-71
2023/03/23 00:24:53;;;;;;;24.35;15.77;;;11.20;99.90;;;;;;5052956;28;20037;-70
2023/03/23 00:27:21;;;;;;;21.60;15.18;;;11.10;99.90;;;;;;5035378;28;20041;-70
2023/03/23 00:29:48;;;;;;;18.23;14.63;;;11.20;99.90;;;;;;5053030;28;20041;-70
2023/03/23 00:32:14;;;;;;;21.55;15.07;;;11.20;99.90;;;;;;5053017;28;20112;-70
2023/03/23 00:34:41;;;;;;;22.98;15.32;;;11.20;99.90;;;;;;5034780;28;20508;-70
2023/03/23 00:37:07;;;;;;;21.17;14.57;;;11.20;99.90;;;;;;5052927;28;20049;-70
2023/03/23 00:39:36;;;;;;;20.60;14.38;;;11.20;99.90;;;;;;5034931;28;20500;-70
2023/03/23 00:42:03;;;;;;;20.83;15.30;;;11.20;99.90;;;;;;5052849;28;20040;-70
2023/03/23 00:44:30;;;;;;;21.75;14.45;;;11.20;99.90;;;;;;5052507;28;20029;-70
2023/03/23 00:46:56;;;;;;;26.55;15.15;;;11.20;99.90;;;;;;5052501;28;20466;-70
2023/03/23 00:49:26;;;;;;;17.63;14.13;;;11.20;99.90;;;;;;5052566;28;20128;-70
2023/03/23 00:51:52;;;;;;;27.63;16.27;;;11.20;99.90;;;;;;5052563;28;20237;-70
2023/03/23 00:54:18;;;;;;;22.42;16.15;;;11.20;99.90;;;;;;5052294;28;20041;-70
2023/03/23 00:56:44;;;;;;;20.08;14.18;;;11.20;99.90;;;;;;5052435;28;20041;-70
2023/03/23 00:59:09;;;;;;;22.65;14.68;;;11.20;99.90;;;;;;5052331;28;20124;-70
2023/03/23 01:01:35;;;;;;;23.02;16.23;;;11.20;99.90;;;;;;5052316;28;20079;-70
2023/03/23 01:04:03;;;;;;;16.10;11.10;;;11.20;99.90;;;;;;5052381;28;20088;-70
2023/03/23 01:06:30;;;;;;;13.82;7.90;;;11.20;99.90;;;;;;5052370;28;20125;-70
2023/03/23 01:08:58;;;;;;;9.90;6.82;;;11.20;99.90;;;;;;5052241;28;20468;-70
2023/03/23 01:11:24;;;;;;;9.50;5.20;;;11.00;99.90;;;;;;5052353;28;20120;-70
2023/03/23 01:13:51;;;;;;;7.68;3.92;;;11.00;99.90;;;;;;5051996;28;20581;-70
2023/03/23 01:16:16;;;;;;;5.00;4.10;;;10.80;99.90;;;;;;5051894;28;20041;-70
2023/03/23 01:18:42;;;;;;;8.40;5.40;;;10.80;99.90;;;;;;5052261;28;20059;-70
2023/03/23 01:21:14;;;;;;;8.10;6.07;;;10.80;99.90;;;;;;5034390;28;20037;-70
2023/03/23 01:23:40;;;;;;;12.40;7.70;;;10.70;99.90;;;;;;5051855;28;20069;-70
2023/03/23 01:26:09;;;;;;;11.02;8.38;;;10.80;99.90;;;;;;5051980;28;20072;-70
2023/03/23 01:28:35;;;;;;;15.63;10.18;;;10.80;99.90;;;;;;5051844;28;20036;-70
2023/03/23 01:31:11;;;;;;;18.77;10.70;;;10.80;99.90;;;;;;5052144;28;20471;-70
2023/03/23 01:33:37;;;;;;;19.23;12.27;;;10.90;99.90;;;;;;5051899;28;20040;-70
2023/03/23 01:36:06;;;;;;;15.80;11.40;;;10.80;99.90;;;;;;5051882;28;20056;-70
2023/03/23 01:38:33;;;;;;;23.38;11.77;;;10.80;99.90;;;;;;5051678;28;20040;-69
2023/03/23 01:40:59;;;;;;;21.85;12.30;;;10.80;99.90;;;;;;5033985;28;20041;-70
2023/03/23 01:43:25;;;;;;;19.52;11.38;;;10.80;99.90;;;;;;5033773;28;20047;-70
2023/03/23 01:45:51;;;;;;;18.92;11.82;;;10.90;99.90;;;;;;5033985;28;20116;-70
2023/03/23 01:48:25;;;;;;;21.60;10.45;;;10.80;99.90;;;;;;5051621;28;20471;-70
2023/03/23 01:50:57;;;;;;;14.75;10.35;;;10.90;99.90;;;;;;5033890;28;20041;-70
2023/03/23 01:53:26;;;;;;;14.18;9.95;;;10.90;99.90;;;;;;5051510;28;20037;-70
2023/03/23 01:55:53;;;;;;;14.75;9.40;;;10.90;99.90;;;;;;5050227;28;20037;-70
2023/03/23 01:58:26;;;;;;;18.90;8.98;;;10.90;99.90;;;;;;5051656;28;20067;-70
2023/03/23 02:00:53;;;;;;;;;;;10.90;99.90;;;;;;5052079;28;20049;-70
2023/03/23 02:03:20;;;;;;;14.95;9.85;;;10.80;99.90;;;;;;5033833;28;20007;-70
2023/03/23 02:05:45;;;;;;;11.32;8.10;;;10.80;99.90;;;;;;5051330;28;20041;-70
2023/03/23 02:08:14;;;;;;;11.65;7.93;;;10.90;99.90;;;;;;5051304;28;20400;-70
2023/03/23 02:10:39;;;;;;;18.15;8.15;;;10.90;99.90;;;;;;5051502;28;20043;-70
2023/03/23 02:13:07;;;;;;;15.10;8.10;;;10.90;99.90;;;;;;5033724;28;20037;-70
2023/03/23 02:16:13;;;;;;;16.48;7.70;;;10.90;99.90;;;;;;5051178;28;20091;-70
2023/03/23 02:19:03;;;;;;;11.82;7.03;;;10.90;99.90;;;;;;5032180;28;20102;-70
2023/03/23 02:21:46;;;;;;;12.38;7.03;;;11.00;99.90;;;;;;5051602;28;20079;-70
2023/03/23 02:24:49;;;;;;;12.40;6.60;;;10.90;99.90;;;;;;5051291;28;20045;-70
2023/03/23 02:27:40;;;;;;;19.55;8.10;;;10.90;99.90;;;;;;5051212;28;20064;-70
2023/03/23 02:30:19;;;;;;;11.68;7.32;;;11.00;99.90;;;;;;5051294;28;20039;-71
2023/03/23 02:33:12;;;;;;;9.57;6.78;;;11.00;99.90;;;;;;5033397;28;20127;-70
2023/03/23 02:35:52;;;;;;;8.77;5.85;;;11.00;99.90;;;;;;5051108;28;20040;-71
2023/03/23 02:38:21;;;;;;;12.65;6.30;;;11.00;99.90;;;;;;5055246;28;20048;-70
2023/03/23 02:40:50;;;;;;;13.48;6.72;;;10.90;99.90;;;;;;5055151;28;20075;-70
2023/03/23 02:43:21;;;;;;;10.73;6.25;;;11.00;99.90;;;;;;5055088;28;20037;-70
2023/03/23 02:45:48;;;;;;;11.93;6.32;;;11.00;99.90;;;;;;5036978;28;20040;-70
2023/03/23 02:48:17;;;;;;;11.73;5.38;;;11.00;99.90;;;;;;5055130;28;20463;-70
2023/03/23 02:50:47;;;;;;;8.55;5.55;;;10.90;99.90;;;;;;5054981;28;20538;-70
2023/03/23 02:53:18;;;;;;;10.18;4.85;;;10.90;99.90;;;;;;5054819;28;20504;-70
2023/03/23 02:55:45;;;;;;;14.20;6.35;;;10.90;99.90;;;;;;5036724;28;20083;-70
2023/03/23 02:58:12;;;;;;;6.80;5.35;;;10.90;99.90;;;;;;5052787;28;20056;-70
2023/03/23 03:00:38;;;;;;;11.88;5.22;;;10.90;99.90;;;;;;5054471;28;20083;-70
2023/03/23 03:03:07;;;;;;;9.88;5.93;;;10.90;99.90;;;;;;5037007;28;20043;-70
2023/03/23 03:05:46;;;;;;;12.70;5.85;;;10.90;99.90;;;;;;5036502;28;20045;-70
2023/03/23 03:08:21;;;;;;;11.77;5.22;;;10.90;99.90;;;;;;5036852;28;20084;-70
2023/03/23 03:11:08;;;;;;;6.53;4.18;;;10.90;99.90;;;;;;5054456;28;20532;-70
2023/03/23 03:13:58;;;;;;;8.85;5.22;;;10.90;99.90;;;;;;5054416;28;20086;-70
2023/03/23 03:16:30;;;;;;;9.82;5.07;;;10.90;99.90;;;;;;5054439;28;20063;-70
2023/03/23 03:19:04;;;;;;;10.05;5.47;;;11.00;99.90;;;;;;5036489;28;20040;-70
2023/03/23 03:21:34;;;;;;;10.88;5.25;;;10.90;99.90;;;;;;5054365;28;20493;-70
2023/03/23 03:24:02;;;;;;;13.80;4.88;;;11.00;99.90;;;;;;5054272;28;20047;-71
2023/03/23 03:26:34;;;;;;;8.93;5.30;;;11.00;99.90;;;;;;5036600;28;20033;-70
2023/03/23 03:29:00;;;;;;;8.68;4.95;;;10.90;99.90;;;;;;5054318;28;20068;-70
2023/03/23 03:31:37;;;;;;;11.15;4.55;;;10.90;99.90;;;;;;5054195;28;20445;-71
2023/03/23 03:34:03;;;;;;;8.23;4.35;;;10.90;99.90;;;;;;5036129;28;20041;-70
2023/03/23 03:36:34;;;;;;;7.63;4.20;;;10.90;99.90;;;;;;5054004;28;20037;-70
2023/03/23 03:39:09;;;;;;;5.63;3.85;;;10.90;99.90;;;;;;5028579;28;20041;-70
2023/03/23 03:41:37;;;;;;;8.30;4.57;;;10.90;99.90;;;;;;5054078;28;20048;-70
2023/03/23 03:44:04;;;;;;;5.38;3.85;;;10.90;99.90;;;;;;5053716;28;20049;-70
2023/03/23 03:46:30;;;;;;;9.43;4.30;;;10.90;99.90;;;;;;5036235;28;20068;-71
2023/03/23 03:48:57;;;;;;;6.57;4.63;;;10.90;99.90;;;;;;5052588;28;20501;-70
2023/03/23 03:51:23;;;;;;;6.97;4.22;;;10.90;99.90;;;;;;5053924;28;20083;-70
2023/03/23 03:53:50;;;;;;;7.50;4.45;;;11.00;99.90;;;;;;5053655;28;20087;-70
2023/03/23 03:56:15;;;;;;;6.60;4.40;;;11.00;99.90;;;;;;5053653;28;20048;-70
2023/03/23 03:58:42;;;;;;;8.80;4.90;;;10.90;99.90;;;;;;5053486;28;20045;-70
2023/03/23 04:01:09;;;;;;;11.38;5.25;;;10.90;99.90;;;;;;5036025;28;20045;-70
2023/03/23 04:03:36;;;;;;;9.25;5.10;;;10.90;99.90;;;;;;5019287;28;20041;-70
2023/03/23 04:06:02;;;;;;;8.18;5.13;;;10.90;99.90;;;;;;5053501;28;20444;-71
2023/03/23 04:08:28;;;;;;;10.77;5.50;;;10.80;99.90;;;;;;5077340;22;20110;-71
2023/03/23 04:10:54;;;;;;;14.15;5.82;;;10.80;99.90;;;;;;5053226;28;20041;-71
2023/03/23 04:13:20;;;;;;;13.20;5.78;;;10.90;99.90;;;;;;5035295;28;20068;-71
2023/03/23 04:15:47;;;;;;;8.82;5.18;;;10.80;99.90;;;;;;5053254;28;20045;-71
2023/03/23 04:18:14;;;;;;;8.25;5.72;;;10.80;99.90;;;;;;5052698;28;20041;-71
2023/03/23 04:20:41;;;;;;;8.60;5.07;;;10.80;99.90;;;;;;5035564;28;20048;-71
2023/03/23 04:23:07;;;;;;;9.07;5.55;;;10.80;99.90;;;;;;5053099;28;20048;-71
2023/03/23 04:25:33;;;;;;;12.50;5.75;;;10.80;99.90;;;;;;5052939;28;20037;-71
2023/03/23 04:28:00;;;;;;;9.65;5.57;;;10.80;99.90;;;;;;5053033;28;20041;-71
2023/03/23 04:30:29;;;;;;;10.20;6.47;;;10.80;99.90;;;;;;5035223;28;20070;-71
2023/03/23 04:32:55;;;;;;;9.13;5.88;;;10.80;99.90;;;;;;5035156;28;20508;-71
2023/03/23 04:35:24;;;;;;;12.68;5.72;;;10.80;99.90;;;;;;5034886;28;20045;-71
2023/03/23 04:37:50;;;;;;;6.35;3.92;;;10.90;99.90;;;;;;5034903;28;20528;-71
2023/03/23 04:40:16;;;;;;;4.80;2.80;;;10.80;99.90;;;;;;5035053;28;20045;-71
2023/03/23 04:42:45;;;;;;;5.30;2.42;;;10.70;99.90;;;;;;5034864;28;20535;-71
2023/03/23 04:45:15;;;;;;;4.78;2.63;;;10.70;99.90;;;;;;5034593;28;20091;-72
2023/03/23 04:47:52;;;;;;;10.25;4.00;;;10.60;99.90;;;;;;5052655;28;20416;-71
2023/03/23 04:50:19;;;;;;;10.60;6.18;;;10.60;99.90;;;;;;5052764;28;20041;-71
2023/03/23 04:52:45;;;;;;;10.80;6.43;;;10.70;99.90;;;;;;5052511;28;20033;-71
2023/03/23 04:55:12;;;;;;;9.75;4.60;;;10.70;99.90;;;;;;5052532;28;20033;-71
2023/03/23 04:57:39;;;;;;;9.25;4.43;;;10.70;99.90;;;;;;5034538;28;20071;-71
2023/03/23 05:00:08;;;;;;;12.70;4.65;;;10.70;99.90;;;;;;5052189;28;20063;-70
2023/03/23 05:02:35;;;;;;;10.48;5.85;;;10.60;99.90;;;;;;5052486;28;20044;-71
2023/03/23 05:05:01;;;;;;;9.60;5.55;;;10.60;99.90;;;;;;5052067;28;20048;-70
2023/03/23 05:07:26;;;;;;;8.15;4.15;;;10.60;99.90;;;;;;5052046;28;20045;-70
2023/03/23 05:09:52;;;;;;;10.70;5.25;;;10.60;99.90;;;;;;5052418;28;20131;-71
2023/03/23 05:12:18;;;;;;;11.30;5.47;;;10.50;99.90;;;;;;5052442;28;20033;-70
2023/03/23 05:14:43;;;;;;;11.32;5.80;;;10.50;99.90;;;;;;5052035;28;20036;-70
2023/03/23 05:17:09;;;;;;;12.85;5.60;;;10.50;99.90;;;;;;5052086;28;20045;-71
2023/03/23 05:19:36;;;;;;;10.50;4.55;;;10.50;99.90;;;;;;5052391;28;20040;-70
2023/03/23 05:22:05;;;;;;;12.05;4.35;;;10.50;99.90;;;;;;5051909;28;20488;-71
2023/03/23 05:24:32;;;;;;;9.27;3.70;;;10.40;99.90;;;;;;5017490;28;20118;-71
2023/03/23 05:26:59;;;;;;;6.80;3.40;;;10.40;99.90;;;;;;5034171;28;20041;-71
2023/03/23 05:29:25;;;;;;;16.00;4.07;;;10.40;99.90;;;;;;5034357;28;20389;-72
2023/03/23 05:31:52;;;;;;;12.48;4.18;;;10.40;99.90;;;;;;5052025;28;20049;-73
2023/03/23 05:34:18;;;;;;;16.20;4.60;;;10.30;99.90;;;;;;5017238;28;20049;-73
2023/03/23 05:36:45;;;;;;;7.82;3.22;;;10.30;99.90;;;;;;5034007;28;20425;-73
2023/03/23 05:39:14;;;;;;;17.27;4.07;;;10.30;99.90;;;;;;5017373;28;20032;-73
2023/03/23 05:41:40;;;;;;;8.68;3.28;;;10.40;99.90;;;;;;5033790;28;20051;-71
2023/03/23 05:44:05;;;;;;;14.48;3.65;;;10.40;99.90;;;;;;5051520;28;20116;-72
2023/03/23 05:46:32;;;;;;;9.68;3.60;;;10.30;99.90;;;;;;5033889;28;20052;-73
2023/03/23 05:48:57;;;;;;;16.60;4.35;;;10.40;99.90;;;;;;5033629;28;20041;-71
2023/03/23 05:51:23;;;;;;;11.05;3.47;;;10.40;99.90;;;;;;5033790;28;20037;-70
2023/03/23 05:53:49;;;;;;;10.20;3.10;;;10.40;99.90;;;;;;5033707;28;20112;-70
2023/03/23 05:56:14;;;;;;;7.15;2.88;;;10.40;99.90;;;;;;5051674;28;20120;-70
2023/03/23 05:58:40;;;;;;;13.38;3.28;;;10.40;99.90;;;;;;5051507;28;20120;-70
2023/03/23 06:01:07;;;;;;;13.45;3.80;;;10.50;99.90;;;;;;5033976;28;20044;-70
2023/03/23 06:03:35;;;;;;;16.02;4.70;;;10.40;99.90;;;;;;5033587;28;20041;-71
2023/03/23 06:06:03;;;;;;;15.98;4.43;;;10.40;99.90;;;;;;5033512;28;20044;-71
2023/03/23 06:08:28;;;;;;;16.23;3.50;;;10.40;99.90;;;;;;5051389;28;20099;-71
2023/03/23 06:10:55;;;;;;;18.92;4.90;;;10.40;99.90;;;;;;5034346;28;20497;-71
2023/03/23 06:13:21;;;;;;;27.13;4.70;;;10.50;99.90;;;;;;5037707;28;20086;-71
2023/03/23 06:15:47;;;;;;;12.18;3.50;;;10.50;99.90;;;;;;5037375;28;20120;-72
2023/03/23 06:18:13;;;;;;;14.63;3.65;;;10.50;99.90;;;;;;5055325;28;20052;-72
2023/03/23 06:20:40;;;;;;;17.67;4.15;;;10.50;99.90;;;;;;5055677;28;20043;-72
2023/03/23 06:23:06;;;;;;;21.15;5.30;;;10.50;99.90;;;;;;5037578;28;20523;-72
2023/03/23 06:25:32;;;;;;;18.90;3.70;;;10.60;99.90;;;;;;5055239;28;20063;-70
2023/03/23 06:27:58;;;;;;;16.85;4.88;;;10.60;99.90;;;;;;5055240;28;20048;-70
2023/03/23 06:30:24;;;;;;;15.88;4.03;;;10.60;99.90;;;;;;5037323;28;20408;-70
2023/03/23 06:32:51;;;;;;;16.20;4.45;;;10.60;99.90;;;;;;5055128;28;20492;-70
2023/03/23 06:35:16;;;;;;;17.63;4.20;;;10.60;99.90;;;;;;5054984;28;20080;-70
2023/03/23 06:37:42;;;;;;;15.75;4.38;;;10.60;99.90;;;;;;5037052;28;20081;-70
2023/03/23 06:40:09;;;;;;;15.63;4.40;;;10.70;99.90;;;;;;5055054;28;20037;-70
2023/03/23 06:42:35;;;;;;;26.48;5.95;;;10.70;99.90;;;;;;5055211;28;20076;-70
2023/03/23 06:45:02;;;;;;;15.30;3.45;;;10.70;99.90;;;;;;5054783;28;20128;-70
2023/03/23 06:47:30;;;;;;;20.35;4.47;;;10.70;99.90;;;;;;5036995;28;20049;-70
2023/03/23 06:49:57;;;;;;;23.67;4.95;;;10.70;99.90;;;;;;5036931;28;20056;-70
2023/03/23 06:52:23;;;;;;;17.02;3.70;;;10.60;99.90;;;;;;5037000;28;20512;-70
2023/03/23 06:54:50;;;;;;;23.92;4.82;;;10.60;99.90;;;;;;5054477;28;20080;-69
2023/03/23 06:57:16;;;;;;;21.48;6.05;;;10.60;99.90;;;;;;5036658;28;20041;-72
2023/03/23 06:59:42;;;;;;;20.88;4.88;;;10.70;99.90;;;;;;5036918;28;20412;-72
2023/03/23 07:02:13;;;;;;;18.38;4.90;;;10.70;99.90;;;;;;5036412;28;20045;-71
2023/03/23 07:04:40;;;;;;;19.27;5.47;;;10.80;99.90;;;;;;5054489;28;20043;-71
2023/03/23 07:07:08;;;;;;;23.55;4.25;;;10.80;99.90;;;;;;5054416;28;20518;-71
2023/03/23 07:09:33;;;;;;;22.55;5.13;;;10.80;99.90;;;;;;5054605;28;20510;-72
2023/03/23 07:11:59;;;;;;;20.92;5.78;;;10.80;99.90;;;;;;5054649;28;20053;-71
2023/03/23 07:14:24;;;;;;;18.60;4.68;;;10.90;99.90;;;;;;5054287;28;20041;-71
2023/03/23 07:16:51;;;;;;;15.50;3.90;;;10.80;99.90;;;;;;5036473;28;20048;-72
2023/03/23 07:19:16;;;;;;;17.85;5.38;;;10.80;99.90;;;;;;5036769;28;20041;-71
2023/03/23 07:21:42;;;;;;;24.10;6.28;;;10.80;99.90;;;;;;5054171;28;20047;-72
2023/03/23 07:24:13;;;;;;;29.48;7.07;;;10.80;99.90;;;;;;5036413;28;20032;-72
2023/03/23 07:26:40;;;;;;;24.50;4.03;;;10.80;99.90;;;;;;5054390;28;20058;-72
2023/03/23 07:29:06;;;;;;;20.02;4.70;;;10.80;99.90;;;;;;5054032;28;20380;-72
2023/03/23 07:31:32;;;;;;;26.70;4.90;;;10.90;99.90;;;;;;5054339;28;20094;-71
2023/03/23 07:33:57;;;;;;;26.45;6.10;;;10.80;99.90;;;;;;5036220;28;20041;-71
2023/03/23 07:36:23;;;;;;;25.25;5.00;;;10.90;99.90;;;;;;5053956;28;20045;-71
2023/03/23 07:38:48;;;;;;;23.30;5.60;;;10.90;99.90;;;;;;5053797;28;20048;-71
2023/03/23 07:41:14;;;;;;;31.38;5.55;;;11.20;99.90;;;;;;5019592;28;20041;-71
2023/03/23 07:43:41;;;;;;;21.60;5.35;;;11.40;99.90;;;;;;5035878;28;20041;-71
2023/03/23 07:46:06;;;;;;;23.02;5.32;;;11.40;99.90;;;;;;5054005;28;20048;-71
2023/03/23 07:48:32;;;;;;;25.65;5.07;;;11.70;99.90;;;;;;5053911;28;20492;-71
2023/03/23 07:50:59;;;;;;;19.20;4.38;;;11.80;99.90;;;;;;5036023;28;20407;-71
2023/03/23 07:53:24;;;;;;;19.75;4.00;;;11.80;99.90;;;;;;5035717;28;20052;-71
2023/03/23 07:55:50;;;;;;;26.38;4.85;;;11.70;99.90;;;;;;5053617;28;20120;-71
2023/03/23 07:58:19;;;;;;;18.08;5.07;;;11.70;99.90;;;;;;5035704;28;20412;-71
2023/03/23 08:00:46;;;;;;;24.77;6.15;;;11.80;99.90;;;;;;5053881;28;20091;-74
2023/03/23 08:03:12;;;;;;;23.67;5.20;;;11.90;99.90;;;;;;5035655;28;20052;-72
2023/03/23 08:05:38;;;;;;;18.50;4.28;;;11.90;99.90;;;;;;5043250;28;20071;-72
2023/03/23 08:08:04;;;;;;;20.77;4.72;;;11.90;99.90;;;;;;5042001;28;20037;-71
2023/03/23 08:10:30;;;;;;;19.45;4.70;;;11.80;99.90;;;;;;5065064;28;20036;-71
2023/03/23 08:12:56;;;;;;;27.17;5.55;;;11.80;99.90;;;;;;5073255;28;20076;-72
2023/03/23 08:15:23;;;;;;;24.10;4.88;;;11.70;99.90;;;;;;5073271;28;20127;-71
2023/03/23 08:17:50;;;;;;;24.38;4.15;;;11.80;99.90;;;;;;5049110;28;20048;-71
2023/03/23 08:20:16;;;;;;;20.67;4.60;;;11.70;99.90;;;;;;5064956;28;20037;-72
2023/03/23 08:22:44;;;;;;;26.55;5.18;;;11.70;99.90;;;;;;5073248;28;20041;-71
2023/03/23 08:25:12;;;;;;;22.25;4.88;;;11.70;99.90;;;;;;5072872;28;20043;-71
2023/03/23 08:27:43;;;;;;;21.65;4.40;;;11.70;99.90;;;;;;5055414;28;20040;-71
2023/03/23 08:30:10;;;;;;;23.90;5.03;;;11.70;99.90;;;;;;5073311;28;20063;-71
2023/03/23 08:32:36;;;;;;;19.55;4.53;;;11.70;99.90;;;;;;5073079;28;20075;-72
2023/03/23 08:35:02;;;;;;;16.17;4.47;;;11.70;99.90;;;;;;5067619;28;20048;-72
2023/03/23 08:37:28;;;;;;;25.45;5.05;;;11.80;99.90;;;;;;5029939;28;20166;-71
2023/03/23 08:39:55;;;;;;;28.92;5.22;;;11.80;99.90;;;;;;5072787;28;20678;-71
2023/03/23 08:42:22;;;;;;;23.38;4.72;;;11.80;99.90;;;;;;5054920;28;20511;-71
2023/03/23 08:44:48;;;;;;;17.48;5.07;;;11.80;99.90;;;;;;5062888;28;20094;-72
2023/03/23 08:47:13;;;;;;;24.85;5.40;;;11.80;99.90;;;;;;5048544;28;20691;-71
2023/03/23 08:49:39;;;;;;;27.00;5.05;;;11.80;99.90;;;;;;5054735;28;20123;-72
2023/03/23 08:52:05;;;;;;;24.45;4.57;;;11.70;99.90;;;;;;5038187;28;20071;-71
2023/03/23 08:54:31;;;;;;;18.88;5.10;;;11.80;99.90;;;;;;5072230;28;20060;-72
2023/03/23 08:57:00;;;;;;;21.77;4.55;;;11.90;99.90;;;;;;5062480;28;20040;-72
2023/03/23 08:59:26;;;;;;;29.65;5.55;;;12.00;99.90;;;;;;5050335;28;20044;-73
2023/03/23 09:01:52;;;;;;;22.38;5.15;;;12.20;99.90;;;;;;5072543;28;20079;-72
2023/03/23 09:04:18;;;;;;;22.30;5.45;;;12.40;99.90;;;;;;5072188;28;20075;-73
2023/03/23 09:06:45;;;;;;;25.48;6.47;;;12.40;99.90;;;;;;5072389;28;20414;-73
2023/03/23 09:09:11;;;;;;;27.10;4.90;;;12.60;99.90;;;;;;5072058;28;20381;-73
2023/03/23 09:11:38;;;;;;;25.15;4.88;;;12.50;99.90;;;;;;5072493;28;20032;-73
2023/03/23 09:14:07;;;;;;;33.95;8.55;;;12.50;99.90;;;;;;5072145;28;20436;-73
2023/03/23 09:16:32;;;;;;;26.02;5.63;;;12.60;99.90;;;;;;5072139;28;20071;-73
2023/03/23 09:18:58;;;;;;;28.92;5.88;;;12.90;99.90;;;;;;5072123;28;20036;-73
2023/03/23 09:21:25;;;;;;;24.67;5.53;;;12.90;99.90;;;;;;5072138;28;20040;-73
2023/03/23 09:23:51;;;;;;;26.05;5.72;;;12.90;99.90;;;;;;5072025;28;20044;-73
2023/03/23 09:26:18;;;;;;;22.98;4.90;;;12.80;99.90;;;;;;5072264;28;20037;-73
2023/03/23 09:28:44;;;;;;;23.25;5.05;;;12.80;99.90;;;;;;5072075;28;20072;-73
2023/03/23 09:31:11;;;;;;;27.90;5.35;;;13.00;99.90;;;;;;5072205;28;20111;-73
2023/03/23 09:33:37;;;;;;;32.17;5.68;;;13.00;99.90;;;;;;5053980;28;20036;-73
2023/03/23 09:36:04;;;;;;;25.45;6.30;;;12.80;99.90;;;;;;5071802;28;20041;-73
2023/03/23 09:38:32;;;;;;;25.05;5.65;;;12.80;99.90;;;;;;5053983;28;20170;-73
2023/03/23 09:41:24;;;;;;;28.17;6.20;;;12.70;99.90;;;;;;5072164;28;20107;-73
2023/03/23 09:44:06;;;;;;;24.92;5.85;;;13.00;99.90;;;;;;5071795;28;20040;-73
2023/03/23 09:46:56;;;;;;;27.02;5.63;;;13.10;99.90;;;;;;5072074;28;20071;-73
2023/03/23 09:49:33;;;;;;;24.50;5.30;;;13.30;99.90;;;;;;5072051;28;20423;-73
2023/03/23 09:52:08;;;;;;;22.05;4.78;;;13.40;99.90;;;;;;5071911;28;20029;-72
2023/03/23 09:54:36;;;;;;;28.33;4.97;;;13.70;99.90;;;;;;5071520;28;20111;-73
2023/03/23 09:57:03;;;;;;;20.67;5.03;;;13.70;99.90;;;;;;5053431;28;20076;-73
2023/03/23 09:59:52;;;;;;;23.08;6.13;;;13.90;99.90;;;;;;5053691;28;20037;-73
2023/03/23 10:03:11;;;;;;;23.40;5.78;;;13.90;99.90;;;;;;5053653;28;20048;-73
2023/03/23 10:05:39;;;;;;;14.93;4.00;;;13.90;99.90;;;;;;4970209;28;20047;-73
2023/03/23 10:08:23;;;;;;;19.73;4.00;;;14.10;99.90;;;;;;5080915;22;20057;-72
2023/03/23 10:11:04;;;;;;;16.10;5.03;;;13.90;99.90;;;;;;5051552;28;20052;-72
2023/03/23 10:13:54;;;;;;;27.02;5.35;;;14.00;99.90;;;;;;5033552;28;20044;-72
2023/03/23 10:16:28;;;;;;;23.13;4.18;;;14.10;99.90;;;;;;5033405;28;20420;-72
2023/03/23 10:19:08;;;;;;;16.05;3.67;;;14.00;99.90;;;;;;5050738;28;20155;-72
2023/03/23 10:21:38;;;;;;;18.67;4.28;;;13.80;99.90;;;;;;5033618;28;20041;-72
2023/03/23 10:24:09;;;;;;;22.05;5.80;;;13.80;99.90;;;;;;5033319;28;20511;-72
2023/03/23 10:26:54;;;;;;;19.88;4.97;;;13.70;99.90;;;;;;5051546;28;20048;-73
2023/03/23 10:29:45;;;;;;;15.63;3.88;;;13.70;99.90;;;;;;5051196;28;20049;-73
2023/03/23 10:32:14;;;;;;;18.02;4.88;;;13.60;99.90;;;;;;5016848;28;20051;-72
2023/03/23 10:34:46;;;;;;;18.73;4.65;;;13.60;99.90;;;;;;5033051;28;20044;-72
2023/03/23 10:37:18;;;;;;;19.08;4.85;;;13.50;99.90;;;;;;5033264;28;20072;-72
2023/03/23 10:39:51;;;;;;;12.90;3.40;;;13.50;99.90;;;;;;5033371;28;20041;-72
2023/03/23 10:42:24;;;;;;;22.58;4.75;;;13.40;99.90;;;;;;5033330;28;20045;-72
2023/03/23 10:44:50;;;;;;;24.13;5.22;;;13.30;99.90;;;;;;5050733;28;20044;-73
2023/03/23 10:47:17;;;;;;;15.00;4.22;;;13.20;99.90;;;;;;5016716;28;20033;-72
2023/03/23 10:49:58;;;;;;;18.35;4.25;;;13.10;99.90;;;;;;5050103;28;20045;-73
2023/03/23 10:52:39;;;;;;;21.10;4.53;;;13.20;99.90;;;;;;5033184;28;20041;-72
2023/03/23 10:55:10;;;;;;;16.52;3.80;;;13.30;99.90;;;;;;5016698;28;20079;-72
2023/03/23 10:57:40;;;;;;;16.23;4.07;;;13.30;99.90;;;;;;5034506;28;20037;-72
2023/03/23 11:00:22;;;;;;;16.73;5.07;;;13.40;99.90;;;;;;5036765;28;20033;-73
2023/03/23 11:03:15;;;;;;;19.13;4.30;;;13.60;99.90;;;;;;5036911;28;20037;-73
2023/03/23 11:05:42;;;;;;;20.65;4.88;;;13.70;99.90;;;;;;5009032;28;20045;-73
2023/03/23 11:08:13;;;;;;;14.73;4.93;;;13.60;99.90;;;;;;5054341;28;20500;-72
2023/03/23 11:11:19;;;;;;;18.38;4.15;;;13.60;99.90;;;;;;5036790;28;20041;-72
2023/03/23 11:13:47;;;;;;;14.00;3.78;;;13.40;99.90;;;;;;5036566;28;20040;-72
2023/03/23 11:16:28;;;;;;;17.35;4.22;;;13.40;99.90;;;;;;5036348;28;20048;-72
2023/03/23 11:18:54;;;;;;;16.10;4.35;;;13.50;99.90;;;;;;5054443;28;20095;-72
2023/03/23 11:21:22;;;;;;;12.70;3.80;;;13.60;99.90;;;;;;5036416;28;20041;-72
2023/03/23 11:23:53;;;;;;;17.80;4.22;;;13.70;99.90;;;;;;5054238;28;20033;-72
2023/03/23 11:26:31;;;;;;;13.48;3.97;;;13.70;99.90;;;;;;5036058;28;20496;-72
2023/03/23 11:29:16;;;;;;;19.15;4.47;;;13.70;99.90;;;;;;5036392;28;20037;-72
2023/03/23 11:31:52;;;;;;;15.23;3.55;;;13.90;99.90;;;;;;5036373;28;20045;-72
2023/03/23 11:34:21;;;;;;;21.73;4.15;;;14.10;99.90;;;;;;5036013;28;20049;-72
2023/03/23 11:37:16;;;;;;;16.40;3.45;;;14.00;99.90;;;;;;5036124;28;20037;-73
2023/03/23 11:39:57;;;;;;;16.65;3.80;;;14.10;99.90;;;;;;5014807;28;20053;-72
2023/03/23 11:42:28;;;;;;;10.45;2.80;;;14.10;99.90;;;;;;5036069;28;20047;-72
2023/03/23 11:44:54;;;;;;;16.45;3.33;;;14.00;99.90;;;;;;5019186;28;20120;-72
2023/03/23 11:47:32;;;;;;;13.00;3.15;;;13.90;99.90;;;;;;5035856;28;20131;-72
2023/03/23 11:50:19;;;;;;;10.07;2.70;;;13.80;99.90;;;;;;5036008;28;20048;-73
2023/03/23 11:53:11;;;;;;;15.73;3.33;;;13.80;99.90;;;;;;5035993;28;20385;-72
2023/03/23 11:55:50;;;;;;;11.82;3.42;;;13.80;99.90;;;;;;5035587;28;20552;-72
2023/03/23 11:58:19;;;;;;;17.92;4.35;;;14.00;99.90;;;;;;5035607;28;20542;-72
2023/03/23 12:01:04;;;;;;;16.23;2.90;;;14.10;99.90;;;;;;5035794;28;20128;-72
2023/03/23 12:03:57;;;;;;;11.48;2.72;;;13.90;99.90;;;;;;5035763;28;20037;-72
2023/03/23 12:06:38;;;;;;;10.85;3.17;;;14.00;99.90;;;;;;5053739;28;20044;-72
2023/03/23 12:09:21;;;;;;;11.70;3.47;;;14.20;99.90;;;;;;5034574;28;20515;-72
2023/03/23 12:12:21;;;;;;;14.23;2.97;;;14.20;99.90;;;;;;5035593;28;20496;-73
2023/03/23 12:15:23;;;;;;;12.20;2.85;;;14.20;99.90;;;;;;5035318;28;20044;-72
2023/03/23 12:18:00;;;;;;;14.30;3.35;;;14.30;99.90;;;;;;5053292;28;20404;-72
2023/03/23 12:20:47;;;;;;;11.35;3.03;;;14.30;99.90;;;;;;5035475;28;20073;-72
2023/03/23 12:23:21;;;;;;;13.80;3.65;;;14.20;99.90;;;;;;5035493;28;20047;-72
2023/03/23 12:26:12;;;;;;;15.45;3.38;;;14.20;99.90;;;;;;5035158;28;20049;-72
2023/03/23 12:29:03;;;;;;;9.50;2.42;;;14.40;99.90;;;;;;5035432;28;20056;-72
2023/03/23 12:31:58;;;;;;;16.27;3.17;;;14.50;99.90;;;;;;5053144;28;20051;-72
2023/03/23 12:34:54;;;;;;;12.70;3.53;;;14.60;99.90;;;;;;5034827;28;20692;-72
2023/03/23 12:37:45;;;;;;;11.60;2.67;;;14.60;99.90;;;;;;5018532;28;20060;-72
2023/03/23 12:40:43;;;;;;;13.60;3.72;;;14.50;99.90;;;;;;5035032;28;20116;-72
2023/03/23 12:43:41;;;;;;;10.75;3.40;;;14.50;99.90;;;;;;5034830;28;20458;-72
2023/03/23 12:46:24;;;;;;;16.30;3.08;;;14.50;99.90;;;;;;5034971;28;20043;-72
2023/03/23 12:49:11;;;;;;;10.40;2.77;;;14.70;99.90;;;;;;5035005;28;20080;-72
2023/03/23 12:52:01;;;;;;;11.32;2.22;;;14.50;99.90;;;;;;5018550;28;20036;-72
2023/03/23 12:54:31;;;;;;;10.15;2.97;;;14.50;99.90;;;;;;5034526;28;20048;-73
2023/03/23 12:57:18;;;;;;;11.77;2.95;;;14.60;99.90;;;;;;5034957;28;20041;-72